< < Back
Terminal Aerodrome Forecast


Current Version              Previous Versions:   1  2  3  4  5  6  7  8  9  

Terminal Aerodrome Forecast

445
FTUS42 KGSP 011134 CCA
TAFAVL
TAF COR
KAVL 011134Z 0112/0212 33004KT P6SM FEW005 SCT060
     FM011500 34006KT P6SM SCT060
     FM011800 34007KT P6SM VCTS BKN050CB
     FM012300 33004KT P6SM BKN060
     FM020900 32003KT 3SM BR FEW010 BKN060=



Latest METAR

715
SAUS70 KWBC 011600 RRT
MTRAVL
METAR KAVL 011554Z 35004KT 10SM CLR 28/16 A3021 RMK AO2 SLP199
T02780161


USA.gov is the U.S. government's official web portal to all federal, state and local government web resources and services.